Time;durP1;ratioP1;P1;durP2;ratioP2;P2;SDS_P1;SDS_P2;PMS_P1;PMS_P2;Temp;Humidity;BMP_temperature;BMP_pressure;BME280_temperature;BME280_humidity;BME280_pressure;Samples;Min_cycle;Max_cycle;Signal;HPM_P1;HPM_P2
2023/03/21 00:01:32;;;;;;;31.35;19.35;;;9.00;99.90;;;;;;5050115;28;20044;-67
2023/03/21 00:03:58;;;;;;;38.15;20.35;;;9.00;99.90;;;;;;5050002;28;20067;-67
2023/03/21 00:06:25;;;;;;;31.98;19.77;;;9.00;99.90;;;;;;5049662;28;20048;-67
2023/03/21 00:08:50;;;;;;;33.10;20.23;;;9.00;99.90;;;;;;5050074;28;20048;-67
2023/03/21 00:11:16;;;;;;;35.40;20.50;;;9.00;99.90;;;;;;5049500;28;20044;-67
2023/03/21 00:13:42;;;;;;;31.02;19.77;;;9.00;99.90;;;;;;5050015;28;20025;-66
2023/03/21 00:16:14;;;;;;;33.03;18.92;;;9.00;99.90;;;;;;5033144;28;20110;-67
2023/03/21 00:18:41;;;;;;;30.80;18.70;;;9.00;99.90;;;;;;5049879;28;20116;-66
2023/03/21 00:21:08;;;;;;;30.42;18.83;;;9.00;99.90;;;;;;5050058;28;20480;-68
2023/03/21 00:23:35;;;;;;;33.38;19.02;;;9.10;99.90;;;;;;5049782;28;20040;-67
2023/03/21 00:26:01;;;;;;;32.47;19.27;;;9.00;99.90;;;;;;5049281;28;20064;-67
2023/03/21 00:28:27;;;;;;;35.65;19.55;;;9.00;99.90;;;;;;5049490;28;20037;-67
2023/03/21 00:30:59;;;;;;;35.55;19.42;;;9.10;99.90;;;;;;5049515;28;20041;-66
2023/03/21 00:33:25;;;;;;;;;;;9.10;99.90;;;;;;5049882;28;20131;-67
2023/03/21 00:35:52;;;;;;;32.58;19.52;;;9.00;99.90;;;;;;5049382;28;20058;-67
2023/03/21 00:38:22;;;;;;;32.50;19.10;;;9.10;99.90;;;;;;5049143;28;20041;-66
2023/03/21 00:40:48;;;;;;;35.33;20.45;;;9.10;99.90;;;;;;5049645;28;20099;-67
2023/03/21 00:43:16;;;;;;;32.90;19.95;;;9.10;99.90;;;;;;5049420;28;20563;-66
2023/03/21 00:45:45;;;;;;;34.22;20.27;;;9.00;99.90;;;;;;5049203;28;20124;-67
2023/03/21 00:48:11;;;;;;;32.72;19.30;;;9.10;99.90;;;;;;5049319;28;20121;-66
2023/03/21 00:50:38;;;;;;;34.83;20.15;;;9.10;99.90;;;;;;5049138;28;20032;-67
2023/03/21 00:53:07;;;;;;;36.80;20.60;;;9.00;99.90;;;;;;5049231;28;20111;-67
2023/03/21 00:55:33;;;;;;;41.38;20.58;;;9.10;99.90;;;;;;5048891;28;20052;-67
2023/03/21 00:57:59;;;;;;;38.13;20.95;;;9.00;99.90;;;;;;5049235;28;20033;-67
2023/03/21 01:00:26;;;;;;;35.17;20.10;;;9.10;99.90;;;;;;5048961;28;20041;-68
2023/03/21 01:02:57;;;;;;;40.13;20.25;;;9.10;99.90;;;;;;5049294;28;20037;-67
2023/03/21 01:08:16;;;;;;;34.42;20.13;;;9.10;99.90;;;;;;5052460;28;20101;-68
2023/03/21 01:10:44;;;;;;;34.75;20.95;;;9.10;99.90;;;;;;5052904;28;20057;-67
2023/03/21 01:13:11;;;;;;;39.00;22.38;;;9.10;99.90;;;;;;5053321;28;20056;-67
2023/03/21 01:15:43;;;;;;;33.35;20.58;;;9.10;99.90;;;;;;5036293;28;20049;-68
2023/03/21 01:18:09;;;;;;;41.20;21.30;;;9.10;99.90;;;;;;5053182;28;20033;-67
2023/03/21 01:20:35;;;;;;;41.78;22.05;;;9.10;99.90;;;;;;5036124;28;20052;-68
2023/03/21 01:23:01;;;;;;;43.70;22.33;;;9.10;99.90;;;;;;5053310;28;20498;-67
2023/03/21 01:25:27;;;;;;;38.15;21.92;;;9.10;99.90;;;;;;5052679;28;20056;-67
2023/03/21 01:27:53;;;;;;;39.53;22.05;;;9.10;99.90;;;;;;5052978;28;20041;-68
2023/03/21 01:30:19;;;;;;;36.35;21.02;;;9.10;99.90;;;;;;5054731;28;20075;-69
2023/03/21 01:32:45;;;;;;;37.47;21.20;;;9.10;99.90;;;;;;5052617;28;20056;-67
2023/03/21 01:35:11;;;;;;;40.45;22.63;;;9.10;99.90;;;;;;5052807;28;20423;-67
2023/03/21 01:37:37;;;;;;;38.75;22.38;;;9.10;99.90;;;;;;5036132;28;20045;-67
2023/03/21 01:40:04;;;;;;;42.50;22.67;;;9.10;99.90;;;;;;5052876;28;20454;-67
2023/03/21 01:42:30;;;;;;;47.28;24.15;;;9.10;99.90;;;;;;5052699;28;20028;-66
2023/03/21 01:45:02;;;;;;;41.80;23.75;;;9.10;99.90;;;;;;5052565;28;20074;-67
2023/03/21 01:47:28;;;;;;;41.83;22.95;;;9.10;99.90;;;;;;5052585;28;20048;-67
2023/03/21 01:49:58;;;;;;;41.75;22.55;;;9.10;99.90;;;;;;5052469;28;20072;-65
2023/03/21 01:52:27;;;;;;;42.83;24.50;;;9.10;99.90;;;;;;5052454;28;20041;-67
2023/03/21 01:54:56;;;;;;;44.75;23.77;;;9.10;99.90;;;;;;5052198;28;20480;-67
2023/03/21 01:57:31;;;;;;;41.38;23.73;;;9.10;99.90;;;;;;5052251;28;20033;-67
2023/03/21 02:00:00;;;;;;;42.85;23.73;;;9.10;99.90;;;;;;5052167;28;20080;-66
2023/03/21 02:02:30;;;;;;;38.40;22.50;;;9.10;99.90;;;;;;5052533;28;20507;-66
2023/03/21 02:04:57;;;;;;;41.60;21.58;;;9.10;99.90;;;;;;5051920;28;20052;-67
2023/03/21 02:07:34;;;;;;;39.58;23.23;;;9.10;99.90;;;;;;5052158;28;20037;-67
2023/03/21 02:10:03;;;;;;;43.35;23.92;;;9.10;99.90;;;;;;5035528;28;20049;-65
2023/03/21 02:12:30;;;;;;;38.63;22.33;;;9.10;99.90;;;;;;5051948;28;20457;-67
2023/03/21 02:14:57;;;;;;;42.92;23.30;;;9.10;99.90;;;;;;5051655;28;20044;-66
2023/03/21 02:17:35;;;;;;;36.83;21.73;;;9.10;99.90;;;;;;5052129;28;20036;-67
2023/03/21 02:20:37;;;;;;;37.85;21.73;;;9.10;99.90;;;;;;5050780;28;20040;-66
2023/03/21 02:23:16;;;;;;;37.45;20.27;;;9.10;99.90;;;;;;5052002;28;20045;-67
2023/03/21 02:25:48;;;;;;;34.00;19.58;;;9.10;99.90;;;;;;5051645;28;20061;-67
2023/03/21 02:28:27;;;;;;;33.97;19.43;;;9.10;99.90;;;;;;5052109;28;20396;-67
2023/03/21 02:31:14;;;;;;;30.65;17.88;;;9.10;99.90;;;;;;5051424;28;20041;-67
2023/03/21 02:34:12;;;;;;;31.55;18.67;;;9.10;99.90;;;;;;5051677;28;20095;-67
2023/03/21 02:37:03;;;;;;;28.13;15.98;;;9.10;99.90;;;;;;5036323;28;20057;-67
2023/03/21 02:39:51;;;;;;;25.48;15.82;;;9.10;99.90;;;;;;5051497;28;20098;-67
2023/03/21 02:42:50;;;;;;;23.98;14.32;;;9.10;99.90;;;;;;5051550;28;20040;-66
2023/03/21 02:45:27;;;;;;;24.48;15.52;;;9.00;99.90;;;;;;4997836;28;20172;-68
2023/03/21 02:47:58;;;;;;;26.70;14.88;;;9.00;99.90;;;;;;5013766;28;20053;-67
2023/03/21 02:50:36;;;;;;;25.75;14.60;;;9.10;99.90;;;;;;5013848;28;20132;-68
2023/03/21 02:53:05;;;;;;;23.92;14.50;;;9.10;99.90;;;;;;5013704;28;20385;-67
2023/03/21 02:55:34;;;;;;;21.65;14.45;;;9.00;99.90;;;;;;5046912;28;20081;-65
2023/03/21 02:58:01;;;;;;;21.98;13.68;;;9.00;99.90;;;;;;5013437;28;20041;-67
2023/03/21 03:00:31;;;;;;;21.83;14.25;;;9.00;99.90;;;;;;5046109;28;20046;-67
2023/03/21 03:02:57;;;;;;;21.85;14.23;;;9.00;99.90;;;;;;5013520;28;20057;-67
2023/03/21 03:05:25;;;;;;;24.55;14.25;;;9.00;99.90;;;;;;5030290;28;20052;-67
2023/03/21 03:08:09;;;;;;;21.13;13.90;;;9.00;99.90;;;;;;5046519;28;20404;-67
2023/03/21 03:11:13;;;;;;;23.38;14.05;;;9.00;99.90;;;;;;5013658;28;20499;-67
2023/03/21 03:14:05;;;;;;;18.88;13.63;;;9.00;99.90;;;;;;5046428;28;20049;-67
2023/03/21 03:16:48;;;;;;;24.00;13.95;;;9.00;99.90;;;;;;5013305;28;20049;-68
2023/03/21 03:19:26;;;;;;;25.20;14.05;;;9.00;99.90;;;;;;5046200;28;20045;-66
2023/03/21 03:22:12;;;;;;;21.48;14.18;;;9.00;99.90;;;;;;5042911;28;20056;-66
2023/03/21 03:25:03;;;;;;;18.95;13.15;;;9.10;99.90;;;;;;5050559;28;20056;-66
2023/03/21 03:27:35;;;;;;;21.00;12.95;;;9.00;99.90;;;;;;5050281;28;20110;-66
2023/03/21 03:30:04;;;;;;;23.50;13.47;;;9.10;99.90;;;;;;5050429;28;20388;-67
2023/03/21 03:32:45;;;;;;;19.17;13.30;;;9.00;99.90;;;;;;5050647;28;20619;-66
2023/03/21 03:35:15;;;;;;;19.27;13.02;;;9.00;99.90;;;;;;5050289;28;20076;-67
2023/03/21 03:37:42;;;;;;;21.35;13.43;;;9.00;99.90;;;;;;5050485;28;20040;-68
2023/03/21 03:40:14;;;;;;;20.30;13.88;;;9.00;99.90;;;;;;5050234;28;20053;-67
2023/03/21 03:42:46;;;;;;;22.27;13.50;;;9.00;99.90;;;;;;5033790;28;20044;-68
2023/03/21 03:45:12;;;;;;;20.05;14.15;;;9.00;99.90;;;;;;5050124;28;20051;-67
2023/03/21 03:48:26;;;;;;;19.42;13.82;;;9.00;99.90;;;;;;5050380;28;20048;-67
2023/03/21 03:51:06;;;;;;;25.10;14.68;;;9.00;99.90;;;;;;5029907;28;20045;-66
2023/03/21 03:53:37;;;;;;;24.85;15.82;;;9.00;99.90;;;;;;5050317;28;20526;-67
2023/03/21 03:56:06;;;;;;;24.02;15.45;;;9.00;99.90;;;;;;5050080;28;20037;-67
2023/03/21 03:58:32;;;;;;;23.35;16.27;;;9.00;99.90;;;;;;5049843;28;20078;-66
2023/03/21 04:00:58;;;;;;;23.73;15.88;;;9.00;99.90;;;;;;5050016;28;20092;-66
2023/03/21 04:03:23;;;;;;;23.10;15.80;;;9.00;99.90;;;;;;5049690;28;20073;-67
2023/03/21 04:05:49;;;;;;;22.08;15.48;;;9.00;99.90;;;;;;5050104;28;20400;-66
2023/03/21 04:08:16;;;;;;;23.65;16.65;;;9.00;99.90;;;;;;5033293;28;20045;-67
2023/03/21 04:10:42;;;;;;;24.92;16.33;;;9.00;99.90;;;;;;5049801;28;20097;-65
2023/03/21 04:13:08;;;;;;;24.05;16.85;;;9.00;99.90;;;;;;5049581;28;20048;-66
2023/03/21 04:15:34;;;;;;;24.20;17.10;;;9.00;99.90;;;;;;5049590;28;20045;-66
2023/03/21 04:18:00;;;;;;;22.15;17.20;;;9.00;99.90;;;;;;5049717;28;20056;-67
2023/03/21 04:20:26;;;;;;;22.25;16.95;;;9.00;99.90;;;;;;5032861;28;20427;-68
2023/03/21 04:22:53;;;;;;;24.63;16.90;;;9.00;99.90;;;;;;5049820;28;20033;-67
2023/03/21 04:25:18;;;;;;;22.08;16.50;;;9.00;99.90;;;;;;5049544;28;20056;-66
2023/03/21 04:27:45;;;;;;;24.48;17.60;;;9.10;99.90;;;;;;5049681;28;20044;-67
2023/03/21 04:30:11;;;;;;;22.80;16.83;;;9.00;99.90;;;;;;5032714;28;20124;-67
2023/03/21 04:32:41;;;;;;;24.00;17.77;;;9.00;99.90;;;;;;5049325;28;20134;-66
2023/03/21 04:35:08;;;;;;;23.00;16.83;;;9.10;99.90;;;;;;5049551;28;20440;-66
2023/03/21 04:37:34;;;;;;;24.95;17.75;;;9.10;99.90;;;;;;5049140;28;20116;-66
2023/03/21 04:40:05;;;;;;;22.40;17.48;;;9.10;99.90;;;;;;5049653;28;20047;-67
2023/03/21 04:42:31;;;;;;;22.88;16.83;;;9.10;99.90;;;;;;5048570;28;20106;-67
2023/03/21 04:44:57;;;;;;;24.95;18.30;;;9.10;99.90;;;;;;5049520;28;20136;-66
2023/03/21 04:47:24;;;;;;;23.85;17.52;;;9.10;99.90;;;;;;5049295;28;20135;-66
2023/03/21 04:49:50;;;;;;;23.20;18.15;;;9.10;99.90;;;;;;5049334;28;20048;-67
2023/03/21 04:52:16;;;;;;;25.17;18.38;;;9.00;99.90;;;;;;5049359;28;20372;-67
2023/03/21 04:54:42;;;;;;;25.08;18.20;;;9.10;99.90;;;;;;5048894;28;20048;-68
2023/03/21 04:57:08;;;;;;;25.73;19.45;;;9.00;99.90;;;;;;5049206;28;20041;-67
2023/03/21 04:59:34;;;;;;;21.95;17.80;;;9.10;99.90;;;;;;5049323;28;20041;-67
2023/03/21 05:02:00;;;;;;;27.45;18.85;;;9.10;99.90;;;;;;5049121;28;20028;-67
2023/03/21 05:04:27;;;;;;;25.15;18.60;;;9.10;99.90;;;;;;5049276;28;20106;-67
2023/03/21 05:06:54;;;;;;;26.88;19.80;;;9.10;99.90;;;;;;5049327;28;20051;-67
2023/03/21 05:09:23;;;;;;;26.33;19.20;;;9.00;99.90;;;;;;5048917;28;20106;-66
2023/03/21 05:11:50;;;;;;;25.23;19.52;;;9.00;99.90;;;;;;5049316;28;20553;-67
2023/03/21 05:14:21;;;;;;;27.13;19.85;;;9.00;99.90;;;;;;5048988;28;20153;-68
2023/03/21 05:16:51;;;;;;;26.30;19.70;;;9.10;99.90;;;;;;5029359;28;20044;-67
2023/03/21 05:19:21;;;;;;;30.50;20.65;;;9.00;99.90;;;;;;5050276;28;20077;-67
2023/03/21 05:21:47;;;;;;;28.30;20.40;;;9.00;99.90;;;;;;5048765;28;20136;-66
2023/03/21 05:24:16;;;;;;;28.63;20.92;;;9.00;99.90;;;;;;5048847;28;20044;-66
2023/03/21 05:26:49;;;;;;;29.05;19.60;;;9.00;99.90;;;;;;5048842;28;20045;-67
2023/03/21 05:29:16;;;;;;;32.90;21.83;;;9.00;99.90;;;;;;5049452;28;20547;-67
2023/03/21 05:31:42;;;;;;;29.23;20.75;;;9.00;99.90;;;;;;5048725;28;20037;-66
2023/03/21 05:34:08;;;;;;;30.17;21.35;;;9.00;99.90;;;;;;5048708;28;20025;-67
2023/03/21 05:36:34;;;;;;;30.45;21.20;;;9.00;99.90;;;;;;5048715;28;20045;-66
2023/03/21 05:39:01;;;;;;;33.30;22.02;;;9.00;99.90;;;;;;5049064;28;20037;-66
2023/03/21 05:41:26;;;;;;;33.03;22.08;;;9.00;99.90;;;;;;5049058;28;20492;-67
2023/03/21 05:43:52;;;;;;;31.42;22.63;;;9.00;99.90;;;;;;5048981;28;20044;-66
2023/03/21 05:46:17;;;;;;;32.20;22.45;;;8.90;99.90;;;;;;5048791;28;20041;-65
2023/03/21 05:48:43;;;;;;;31.83;22.73;;;8.90;99.90;;;;;;5048576;28;20080;-67
2023/03/21 05:51:09;;;;;;;39.10;23.10;;;8.90;99.90;;;;;;5049848;28;20488;-66
2023/03/21 05:53:35;;;;;;;31.73;22.15;;;8.90;99.90;;;;;;5050584;28;20091;-67
2023/03/21 05:56:01;;;;;;;35.05;23.00;;;8.90;99.90;;;;;;5052191;28;20067;-67
2023/03/21 05:58:26;;;;;;;36.78;23.00;;;9.00;99.90;;;;;;5052490;28;20033;-68
2023/03/21 06:00:52;;;;;;;36.42;23.02;;;9.00;99.90;;;;;;5051981;28;20111;-67
2023/03/21 06:03:17;;;;;;;28.80;20.63;;;9.00;99.90;;;;;;5052537;28;20407;-67
2023/03/21 06:05:43;;;;;;;36.95;22.48;;;9.00;99.90;;;;;;5051949;28;20047;-67
2023/03/21 06:08:09;;;;;;;34.10;23.50;;;9.00;99.90;;;;;;5051990;28;20036;-67
2023/03/21 06:10:34;;;;;;;30.08;21.77;;;9.00;99.90;;;;;;5052056;28;20431;-66
2023/03/21 06:13:00;;;;;;;33.15;20.42;;;9.00;99.90;;;;;;5051917;28;20045;-67
2023/03/21 06:15:26;;;;;;;27.88;20.27;;;9.00;99.90;;;;;;5035576;28;20049;-66
2023/03/21 06:17:51;;;;;;;33.13;21.42;;;9.00;99.90;;;;;;5035161;28;20125;-65
2023/03/21 06:20:17;;;;;;;28.67;19.55;;;9.00;99.90;;;;;;5051770;28;20065;-66
2023/03/21 06:22:43;;;;;;;28.00;18.98;;;9.00;99.90;;;;;;5051672;28;20095;-67
2023/03/21 06:25:09;;;;;;;23.38;17.15;;;9.00;99.90;;;;;;5035188;28;20068;-66
2023/03/21 06:27:35;;;;;;;23.83;16.42;;;9.00;99.90;;;;;;5052074;28;20120;-67
2023/03/21 06:30:01;;;;;;;24.73;16.15;;;9.10;99.90;;;;;;5051799;28;20435;-67
2023/03/21 06:32:27;;;;;;;21.40;14.27;;;9.10;99.90;;;;;;5051825;28;20037;-67
2023/03/21 06:34:52;;;;;;;16.55;13.60;;;9.10;99.90;;;;;;5051292;28;20037;-67
2023/03/21 06:37:18;;;;;;;21.08;14.45;;;9.10;99.90;;;;;;5051570;28;20037;-65
2023/03/21 06:39:45;;;;;;;18.92;13.18;;;9.10;99.90;;;;;;5051121;28;20064;-67
2023/03/21 06:42:12;;;;;;;15.55;12.50;;;9.10;99.90;;;;;;5051412;28;20044;-66
2023/03/21 06:44:38;;;;;;;17.38;12.73;;;9.10;99.90;;;;;;5051740;28;20053;-67
2023/03/21 06:47:03;;;;;;;18.13;13.63;;;9.00;99.90;;;;;;5051398;28;20175;-67
2023/03/21 06:49:30;;;;;;;17.92;13.82;;;9.00;99.90;;;;;;5051404;28;20048;-67
2023/03/21 06:51:55;;;;;;;18.70;14.18;;;9.00;99.90;;;;;;5051176;28;20060;-66
2023/03/21 06:54:21;;;;;;;18.88;14.63;;;9.00;99.90;;;;;;5051208;28;20037;-67
2023/03/21 06:56:47;;;;;;;19.17;14.32;;;9.00;99.90;;;;;;5034457;28;20053;-66
2023/03/21 06:59:13;;;;;;;21.02;14.32;;;9.00;99.90;;;;;;5034799;28;20045;-66
2023/03/21 07:01:39;;;;;;;24.38;14.52;;;9.00;99.90;;;;;;5052476;28;20041;-66
2023/03/21 07:04:05;;;;;;;21.45;15.43;;;9.00;99.90;;;;;;5050404;28;20482;-66
2023/03/21 07:06:31;;;;;;;20.73;14.68;;;9.00;99.90;;;;;;5051328;28;20506;-67
2023/03/21 07:08:57;;;;;;;22.67;15.05;;;9.00;99.90;;;;;;5051092;28;20096;-68
2023/03/21 07:11:23;;;;;;;20.63;15.68;;;9.00;99.90;;;;;;5034808;28;20128;-67
2023/03/21 07:13:49;;;;;;;18.35;14.85;;;9.00;99.90;;;;;;5051160;28;20047;-65
2023/03/21 07:16:16;;;;;;;21.65;16.10;;;9.00;99.90;;;;;;5050706;28;20048;-69
2023/03/21 07:18:42;;;;;;;20.17;16.17;;;9.00;99.90;;;;;;5034198;28;20071;-66
2023/03/21 07:21:08;;;;;;;22.90;16.80;;;9.00;99.90;;;;;;5050617;28;20037;-67
2023/03/21 07:23:33;;;;;;;26.75;18.08;;;9.00;99.90;;;;;;5034446;28;20110;-67
2023/03/21 07:26:00;;;;;;;21.80;16.67;;;9.00;99.90;;;;;;5050542;28;20474;-67
2023/03/21 07:28:26;;;;;;;22.10;16.85;;;9.00;99.90;;;;;;5050849;28;20047;-67
2023/03/21 07:30:55;;;;;;;23.05;16.63;;;9.00;99.90;;;;;;5050854;28;20491;-68
2023/03/21 07:33:22;;;;;;;23.90;16.50;;;9.00;99.90;;;;;;5050348;28;20128;-67
2023/03/21 07:35:51;;;;;;;24.67;16.55;;;9.10;99.90;;;;;;5050545;28;20499;-66
2023/03/21 07:38:18;;;;;;;21.65;16.23;;;9.10;99.90;;;;;;5050419;28;20037;-67
2023/03/21 07:40:45;;;;;;;26.80;17.10;;;9.10;99.90;;;;;;5050427;28;20037;-66
2023/03/21 07:43:11;;;;;;;27.08;16.75;;;9.10;99.90;;;;;;5033857;28;20458;-66
2023/03/21 07:45:37;;;;;;;23.33;16.30;;;9.10;99.90;;;;;;5051588;28;20084;-67
2023/03/21 07:48:03;;;;;;;23.50;17.35;;;9.10;99.90;;;;;;5050546;28;20044;-67
2023/03/21 07:50:28;;;;;;;20.85;15.95;;;9.10;99.90;;;;;;5050492;28;20040;-67
2023/03/21 07:52:54;;;;;;;20.15;15.48;;;9.10;99.90;;;;;;5050177;28;20186;-67
2023/03/21 07:55:20;;;;;;;22.55;15.88;;;9.20;99.90;;;;;;5049853;28;20374;-67
2023/03/21 07:57:48;;;;;;;23.33;16.42;;;9.20;99.90;;;;;;5050414;28;20037;-68
2023/03/21 08:00:21;;;;;;;24.13;16.38;;;9.10;99.90;;;;;;5050041;28;20388;-67
2023/03/21 08:02:53;;;;;;;21.92;16.42;;;9.20;99.90;;;;;;5050098;28;20385;-67
2023/03/21 08:05:23;;;;;;;24.45;17.02;;;9.20;99.90;;;;;;5049804;28;20064;-65
2023/03/21 08:07:49;;;;;;;27.75;16.55;;;9.20;99.90;;;;;;5050345;28;20128;-68
2023/03/21 08:10:16;;;;;;;25.38;15.40;;;9.20;99.90;;;;;;5049985;28;20052;-66
2023/03/21 08:12:42;;;;;;;25.52;17.27;;;9.20;99.90;;;;;;5049731;28;20120;-66
2023/03/21 08:15:08;;;;;;;26.45;17.38;;;9.20;99.90;;;;;;5049527;28;20119;-67
2023/03/21 08:17:36;;;;;;;27.42;16.88;;;9.20;99.90;;;;;;5048981;28;20094;-67
2023/03/21 08:20:06;;;;;;;27.73;16.67;;;9.20;99.90;;;;;;5050077;28;20387;-67
2023/03/21 08:22:32;;;;;;;27.27;16.38;;;9.20;99.90;;;;;;5049416;28;20122;-66
2023/03/21 08:24:58;;;;;;;25.58;16.83;;;9.20;99.90;;;;;;5050836;28;20056;-67
2023/03/21 08:27:24;;;;;;;22.67;15.85;;;9.30;99.90;;;;;;5032768;28;20397;-67
2023/03/21 08:29:50;;;;;;;24.83;15.65;;;9.30;99.90;;;;;;5049490;28;20115;-67
2023/03/21 08:32:17;;;;;;;21.80;15.68;;;9.30;99.90;;;;;;5049596;28;20124;-67
2023/03/21 08:34:43;;;;;;;22.83;15.35;;;9.30;99.90;;;;;;5049569;28;20480;-66
2023/03/21 08:37:08;;;;;;;24.42;15.18;;;9.30;99.90;;;;;;5049431;28;20124;-68
2023/03/21 08:39:34;;;;;;;23.98;15.85;;;9.30;99.90;;;;;;5049484;28;20045;-66
2023/03/21 08:41:59;;;;;;;29.08;14.98;;;9.30;99.90;;;;;;5049298;28;20033;-66
2023/03/21 08:44:25;;;;;;;23.48;15.27;;;9.30;99.90;;;;;;5049422;28;20041;-66
2023/03/21 08:46:51;;;;;;;29.05;16.55;;;9.30;99.90;;;;;;5049318;28;20076;-66
2023/03/21 08:49:17;;;;;;;26.75;16.30;;;9.30;99.90;;;;;;5049372;28;20483;-66
2023/03/21 08:51:44;;;;;;;27.08;15.50;;;9.30;99.90;;;;;;5049340;28;20033;-67
2023/03/21 08:54:20;;;;;;;29.08;16.38;;;9.30;99.90;;;;;;5049230;28;20033;-65
2023/03/21 08:56:46;;;;;;;33.80;17.40;;;9.40;99.90;;;;;;5049353;28;20059;-68
2023/03/21 08:59:11;;;;;;;25.33;16.15;;;9.40;99.90;;;;;;5049241;28;20423;-66
2023/03/21 09:01:37;;;;;;;23.20;15.82;;;9.40;99.90;;;;;;5032459;28;20052;-66
2023/03/21 09:04:06;;;;;;;22.45;15.55;;;9.40;99.90;;;;;;5049092;28;20069;-67
2023/03/21 09:06:32;;;;;;;25.38;15.52;;;9.40;99.90;;;;;;5048974;28;20121;-68
2023/03/21 09:08:58;;;;;;;24.75;14.45;;;9.40;99.90;;;;;;5049220;28;20586;-68
2023/03/21 09:11:24;;;;;;;21.52;14.57;;;9.50;99.90;;;;;;5048873;28;20107;-67
2023/03/21 09:13:50;;;;;;;26.23;15.68;;;9.50;99.90;;;;;;5048841;28;20369;-67
2023/03/21 09:16:16;;;;;;;21.90;14.07;;;9.50;99.90;;;;;;5049045;28;20083;-67
2023/03/21 09:18:45;;;;;;;22.65;14.23;;;9.50;99.90;;;;;;5032297;28;20628;-66
2023/03/21 09:21:13;;;;;;;25.58;13.88;;;9.60;99.90;;;;;;5048847;28;20107;-67
2023/03/21 09:23:40;;;;;;;24.25;14.23;;;9.60;99.90;;;;;;5048743;28;20059;-67
2023/03/21 09:26:07;;;;;;;22.08;14.90;;;9.50;99.90;;;;;;5027011;28;20076;-67
2023/03/21 09:28:33;;;;;;;23.52;14.02;;;9.60;99.90;;;;;;5034832;28;20553;-68
2023/03/21 09:31:01;;;;;;;25.05;14.88;;;9.50;99.90;;;;;;5052754;28;20127;-67
2023/03/21 09:33:28;;;;;;;23.20;13.95;;;9.50;99.90;;;;;;5052672;28;20044;-66
2023/03/21 09:35:54;;;;;;;23.02;13.77;;;9.50;99.90;;;;;;5052638;28;20073;-68
2023/03/21 09:38:20;;;;;;;19.73;13.55;;;9.50;99.90;;;;;;5052611;28;20131;-66
2023/03/21 09:40:58;;;;;;;24.27;13.45;;;9.60;99.90;;;;;;5052429;28;20037;-68
2023/03/21 09:43:39;;;;;;;23.35;13.75;;;9.60;99.90;;;;;;5052590;28;20056;-67
2023/03/21 09:46:15;;;;;;;24.15;14.02;;;9.60;99.90;;;;;;5052528;28;20055;-67
2023/03/21 09:49:06;;;;;;;20.05;13.40;;;9.60;99.90;;;;;;5035615;28;20045;-67
2023/03/21 09:51:37;;;;;;;20.83;13.57;;;9.70;99.90;;;;;;5052447;28;20110;-67
2023/03/21 09:54:11;;;;;;;22.98;13.63;;;9.70;99.90;;;;;;5052651;28;20518;-67
2023/03/21 09:56:41;;;;;;;21.90;12.27;;;9.80;99.90;;;;;;5052164;28;20078;-68
2023/03/21 09:59:09;;;;;;;20.30;12.43;;;9.80;99.90;;;;;;5052208;28;20124;-67
2023/03/21 10:01:44;;;;;;;22.15;13.32;;;9.80;99.90;;;;;;5052482;28;20138;-67
2023/03/21 10:04:16;;;;;;;19.75;12.40;;;9.90;99.90;;;;;;5035678;28;20036;-66
2023/03/21 10:06:44;;;;;;;20.88;12.48;;;10.00;99.90;;;;;;5052231;28;20171;-67
2023/03/21 10:09:13;;;;;;;20.50;12.48;;;10.00;99.90;;;;;;5052233;28;20037;-67
2023/03/21 10:11:49;;;;;;;24.40;12.15;;;10.00;99.90;;;;;;5052061;28;20547;-67
2023/03/21 10:14:27;;;;;;;22.42;12.52;;;10.10;99.90;;;;;;5051961;28;20096;-68
2023/03/21 10:17:03;;;;;;;23.42;13.05;;;10.10;99.90;;;;;;5051947;28;20044;-69
2023/03/21 10:19:29;;;;;;;17.98;11.80;;;10.10;99.90;;;;;;5051971;28;20033;-66
2023/03/21 10:21:55;;;;;;;20.45;12.02;;;10.10;99.90;;;;;;5051748;28;20084;-66
2023/03/21 10:24:24;;;;;;;18.90;12.00;;;10.10;99.90;;;;;;5035012;28;20045;-66
2023/03/21 10:26:52;;;;;;;16.92;11.25;;;10.20;99.90;;;;;;5051641;28;20055;-67
2023/03/21 10:29:22;;;;;;;21.10;11.32;;;10.20;99.90;;;;;;5051777;28;20045;-67
2023/03/21 10:31:50;;;;;;;19.38;11.65;;;10.30;99.90;;;;;;5051563;28;20044;-66
2023/03/21 10:34:27;;;;;;;21.63;10.93;;;10.30;99.90;;;;;;5035536;28;20404;-66
2023/03/21 10:36:53;;;;;;;18.25;10.70;;;10.40;99.90;;;;;;5051712;28;20091;-68
2023/03/21 10:39:41;;;;;;;21.98;11.23;;;10.30;99.90;;;;;;5050517;28;20033;-67
2023/03/21 10:42:31;;;;;;;18.63;10.93;;;10.40;99.90;;;;;;5051694;28;20534;-68
2023/03/21 10:44:57;;;;;;;20.52;11.80;;;10.60;99.90;;;;;;5051289;28;20052;-66
2023/03/21 10:47:30;;;;;;;18.17;10.88;;;10.70;99.90;;;;;;5051400;28;20077;-66
2023/03/21 10:50:01;;;;;;;19.02;11.25;;;10.70;99.90;;;;;;5051356;28;20045;-67
2023/03/21 10:52:31;;;;;;;18.38;10.57;;;10.70;99.90;;;;;;5051665;28;20403;-67
2023/03/21 10:55:21;;;;;;;16.48;11.07;;;10.90;99.90;;;;;;5051127;28;20071;-67
2023/03/21 10:57:47;;;;;;;17.08;10.57;;;10.90;99.90;;;;;;5034482;28;20116;-67
2023/03/21 11:00:21;;;;;;;16.17;10.70;;;11.00;99.90;;;;;;5034910;28;20033;-66
2023/03/21 11:02:50;;;;;;;15.63;10.23;;;11.00;99.90;;;;;;5034653;28;20132;-68
2023/03/21 11:05:21;;;;;;;18.75;11.00;;;11.10;99.90;;;;;;5051209;28;20051;-67
2023/03/21 11:07:55;;;;;;;14.88;9.35;;;11.20;99.90;;;;;;5051077;28;20068;-66
2023/03/21 11:10:36;;;;;;;17.25;10.40;;;11.30;99.90;;;;;;5050908;28;20044;-68
2023/03/21 11:13:15;;;;;;;18.60;9.13;;;11.20;99.90;;;;;;5050853;28;20048;-67
2023/03/21 11:15:57;;;;;;;17.25;9.80;;;11.30;99.90;;;;;;5050893;28;20047;-66
2023/03/21 11:18:25;;;;;;;14.90;9.05;;;11.30;99.90;;;;;;5050700;28;20163;-66
2023/03/21 11:21:02;;;;;;;15.85;8.57;;;11.40;99.90;;;;;;5050913;28;20501;-68
2023/03/21 11:23:30;;;;;;;15.65;8.40;;;11.50;99.90;;;;;;5051043;28;20492;-66
2023/03/21 11:25:59;;;;;;;13.27;8.85;;;11.50;99.90;;;;;;5050432;28;20107;-66
2023/03/21 11:28:32;;;;;;;15.43;7.93;;;11.60;99.90;;;;;;5050840;28;20080;-69
2023/03/21 11:31:01;;;;;;;16.85;8.20;;;11.60;99.90;;;;;;5050593;28;20043;-67
2023/03/21 11:33:49;;;;;;;14.43;7.45;;;11.70;99.90;;;;;;5050523;28;20052;-67
2023/03/21 11:36:18;;;;;;;17.25;8.02;;;11.70;99.90;;;;;;5050505;28;20052;-67
2023/03/21 11:38:48;;;;;;;13.15;8.02;;;11.70;99.90;;;;;;5033887;28;20162;-67
2023/03/21 11:41:32;;;;;;;12.85;7.80;;;11.70;99.90;;;;;;5050518;28;20033;-67
2023/03/21 11:43:59;;;;;;;12.30;7.03;;;11.60;99.90;;;;;;5050215;28;20186;-67
2023/03/21 11:46:30;;;;;;;13.60;6.95;;;11.60;99.90;;;;;;5050293;28;20037;-67
2023/03/21 11:48:58;;;;;;;14.25;7.10;;;11.60;99.90;;;;;;5050271;28;20045;-67
2023/03/21 11:51:42;;;;;;;12.98;7.57;;;11.60;99.90;;;;;;5050050;28;20040;-68
2023/03/21 11:54:49;;;;;;;11.20;6.97;;;11.70;99.90;;;;;;5050085;28;20044;-67
2023/03/21 11:57:36;;;;;;;11.32;6.18;;;11.80;99.90;;;;;;5012382;28;20041;-66
2023/03/21 12:00:13;;;;;;;8.95;5.88;;;11.80;99.90;;;;;;5045727;28;20487;-66
2023/03/21 12:03:14;;;;;;;14.07;6.55;;;11.90;99.90;;;;;;5045754;28;20505;-67
2023/03/21 12:05:52;;;;;;;11.35;6.75;;;12.00;99.90;;;;;;4970144;28;20130;-68
2023/03/21 12:08:28;;;;;;;9.50;5.93;;;12.00;99.90;;;;;;4953938;28;20050;-67
2023/03/21 12:11:03;;;;;;;10.82;6.15;;;11.90;99.90;;;;;;4986372;28;20117;-67
2023/03/21 12:13:53;;;;;;;11.38;6.07;;;11.80;99.90;;;;;;4953884;28;20079;-67
2023/03/21 12:16:39;;;;;;;11.25;6.13;;;11.70;99.90;;;;;;4986212;28;20054;-68
2023/03/21 12:19:17;;;;;;;10.07;6.38;;;11.70;99.90;;;;;;4954003;28;20414;-66
2023/03/21 12:22:03;;;;;;;10.88;6.38;;;11.50;99.90;;;;;;4954135;28;20082;-68
2023/03/21 12:24:37;;;;;;;10.50;6.05;;;11.50;99.90;;;;;;4985719;28;20054;-66
2023/03/21 12:27:09;;;;;;;11.55;6.50;;;11.50;99.90;;;;;;4953658;28;20043;-68
2023/03/21 12:29:42;;;;;;;10.80;6.50;;;11.50;99.90;;;;;;4953783;28;20118;-67
2023/03/21 12:32:32;;;;;;;9.55;6.15;;;11.40;99.90;;;;;;4953621;28;20177;-67
2023/03/21 12:35:04;;;;;;;10.52;6.13;;;11.40;99.90;;;;;;4989187;28;20038;-66
2023/03/21 12:37:36;;;;;;;13.18;6.60;;;11.40;99.90;;;;;;4972725;28;20034;-66
2023/03/21 12:40:10;;;;;;;;;;;11.30;99.90;;;;;;5023167;28;20053;-67
2023/03/21 12:42:52;;;;;;;11.65;6.05;;;11.30;99.90;;;;;;5049283;28;19927;-68
2023/03/21 12:45:24;;;;;;;12.80;7.07;;;11.40;99.90;;;;;;5049418;28;20041;-66
2023/03/21 12:48:02;;;;;;;9.43;6.20;;;11.30;99.90;;;;;;5049420;28;20048;-68
2023/03/21 12:50:37;;;;;;;13.23;6.93;;;11.40;99.90;;;;;;5049162;28;20045;-67
2023/03/21 12:53:35;;;;;;;12.07;6.43;;;11.40;99.90;;;;;;5049554;28;20043;-68
2023/03/21 12:56:07;;;;;;;11.50;5.97;;;11.60;99.90;;;;;;5049218;28;20045;-67